Time;durP1;ratioP1;P1;durP2;ratioP2;P2;SDS_P1;SDS_P2;PMS_P1;PMS_P2;Temp;Humidity;BMP_temperature;BMP_pressure;BME280_temperature;BME280_humidity;BME280_pressure;Samples;Min_cycle;Max_cycle;Signal;HPM_P1;HPM_P2
2021/12/05 00:22:11;;;;;;;9.37;8.37;;;5.20;99.90;;;;;;5014796;28;20171;-50
2021/12/05 00:24:40;;;;;;;8.97;7.93;;;5.20;99.90;;;;;;5014075;28;20216;-43
2021/12/05 00:27:15;;;;;;;9.87;7.90;;;5.30;99.90;;;;;;5014574;28;20230;-45
2021/12/05 00:32:49;;;;;;;9.13;8.20;;;5.30;99.90;;;;;;5014446;28;20230;-44
2021/12/05 00:48:53;;;;;;;10.20;9.10;;;5.20;99.90;;;;;;5029240;28;20729;-45
2021/12/05 01:15:26;;;;;;;8.50;7.60;;;5.40;99.90;;;;;;5000296;28;20235;-38
2021/12/05 01:20:26;;;;;;;7.40;6.63;;;5.40;99.90;;;;;;5054743;28;20203;-40
2021/12/05 01:22:59;;;;;;;8.60;7.07;;;5.40;99.90;;;;;;5051667;28;20163;-40
2021/12/05 01:36:05;;;;;;;5.90;5.30;;;5.40;99.90;;;;;;5032803;28;20198;-38
2021/12/05 02:16:42;;;;;;;4.70;4.30;;;5.50;99.90;;;;;;4971264;28;20713;-37
2021/12/05 02:30:35;;;;;;;4.60;4.20;;;5.50;99.90;;;;;;4951298;28;20204;-35
2021/12/05 02:38:47;;;;;;;4.20;3.80;;;5.50;99.90;;;;;;4951968;29;20679;-37
2021/12/05 02:41:06;;;;;;;4.33;3.93;;;5.50;99.90;;;;;;4951169;28;20693;-38
2021/12/05 02:43:38;;;;;;;4.03;3.73;;;5.40;99.90;;;;;;4951617;29;20178;-37
2021/12/05 02:46:05;;;;;;;4.17;3.83;;;5.40;99.90;;;;;;4977477;28;20225;-41
2021/12/05 02:48:35;;;;;;;3.83;3.53;;;5.40;99.90;;;;;;5033806;28;20186;-35
2021/12/05 02:51:03;;;;;;;3.23;2.93;;;5.40;99.90;;;;;;5051290;28;20674;-34
2021/12/05 02:53:41;;;;;;;3.40;3.10;;;5.40;99.90;;;;;;5051604;28;20179;-37
2021/12/05 02:56:08;;;;;;;3.13;2.87;;;5.40;99.90;;;;;;5051181;28;20167;-37
2021/12/05 02:58:51;;;;;;;3.37;3.10;;;5.30;99.90;;;;;;5051485;28;20190;-37
2021/12/05 03:01:37;;;;;;;3.13;2.83;;;5.30;99.90;;;;;;5050756;28;20183;-38
2021/12/05 03:04:06;;;;;;;2.67;2.47;;;5.20;99.90;;;;;;5051286;28;20185;-36
2021/12/05 03:06:33;;;;;;;2.50;2.30;;;5.20;99.90;;;;;;5051100;28;20641;-39
2021/12/05 03:09:12;;;;;;;2.30;2.10;;;5.10;99.90;;;;;;5053281;28;20176;-35
2021/12/05 03:11:39;;;;;;;2.90;2.70;;;5.10;99.90;;;;;;5054622;28;20621;-38
2021/12/05 03:14:05;;;;;;;3.13;2.70;;;5.10;99.90;;;;;;5055579;28;20665;-33
2021/12/05 03:16:33;;;;;;;2.30;2.10;;;5.10;99.90;;;;;;5055036;28;20174;-38
2021/12/05 03:18:59;;;;;;;2.20;2.10;;;5.20;99.90;;;;;;5054915;28;20228;-36
2021/12/05 03:21:25;;;;;;;2.30;2.20;;;5.10;99.90;;;;;;5055114;28;20202;-36
2021/12/05 03:23:52;;;;;;;2.50;2.30;;;5.10;99.90;;;;;;5055201;28;20228;-36
2021/12/05 03:26:21;;;;;;;2.40;2.30;;;5.10;99.90;;;;;;5055123;28;20210;-33
2021/12/05 03:28:49;;;;;;;2.70;2.50;;;5.10;99.90;;;;;;5050273;28;20207;-37
2021/12/05 03:31:16;;;;;;;2.30;2.20;;;5.10;99.90;;;;;;5055184;28;20822;-33
2021/12/05 03:33:41;;;;;;;2.50;2.30;;;5.20;99.90;;;;;;5054848;28;20199;-34
2021/12/05 03:36:10;;;;;;;2.70;2.50;;;5.20;99.90;;;;;;5054853;28;20653;-37
2021/12/05 03:38:38;;;;;;;3.03;2.77;;;5.20;99.90;;;;;;5054785;28;20186;-37
2021/12/05 03:41:05;;;;;;;2.97;2.77;;;5.20;99.90;;;;;;5055031;28;20248;-36
2021/12/05 03:43:31;;;;;;;3.00;2.70;;;5.20;99.90;;;;;;5055018;28;20258;-34
2021/12/05 03:45:58;;;;;;;2.80;2.60;;;5.10;99.90;;;;;;5054313;28;20171;-33
2021/12/05 03:48:27;;;;;;;3.40;3.10;;;5.10;99.90;;;;;;5054856;28;20178;-37
2021/12/05 03:50:54;;;;;;;4.43;3.03;;;5.10;99.90;;;;;;5054649;28;20195;-36
2021/12/05 03:53:20;;;;;;;3.10;2.80;;;5.10;99.90;;;;;;5054959;28;20527;-32
2021/12/05 03:55:50;;;;;;;3.00;2.80;;;5.00;99.90;;;;;;5054334;28;20309;-37
2021/12/05 03:58:17;;;;;;;3.13;2.90;;;5.00;99.90;;;;;;5054744;28;20175;-35
2021/12/05 04:00:46;;;;;;;3.10;2.87;;;5.00;99.90;;;;;;5054308;28;20196;-37
2021/12/05 04:03:15;;;;;;;4.60;2.60;;;5.00;99.90;;;;;;5054908;28;20548;-37
2021/12/05 04:05:41;;;;;;;2.83;2.60;;;5.00;99.90;;;;;;5054026;28;20183;-34
2021/12/05 04:08:11;;;;;;;3.13;2.77;;;4.90;99.90;;;;;;5054627;28;20168;-35
2021/12/05 04:10:41;;;;;;;2.70;2.50;;;4.30;99.90;;;;;;5054231;28;20202;-34
2021/12/05 04:13:07;;;;;;;2.73;2.53;;;4.90;99.90;;;;;;5054246;28;20171;-36
2021/12/05 04:15:33;;;;;;;3.23;2.33;;;4.90;99.90;;;;;;5054158;28;20202;-38
2021/12/05 04:17:59;;;;;;;2.97;2.23;;;4.90;99.90;;;;;;5054173;28;20545;-34
2021/12/05 04:20:26;;;;;;;3.27;2.50;;;4.90;99.90;;;;;;5054009;28;20191;-36
2021/12/05 04:22:53;;;;;;;4.07;2.20;;;4.90;99.90;;;;;;5054072;28;20171;-32
2021/12/05 04:25:19;;;;;;;2.40;2.20;;;4.90;99.90;;;;;;5054042;28;20181;-36
2021/12/05 04:27:48;;;;;;;2.80;2.43;;;4.80;99.90;;;;;;5053792;28;20656;-37
2021/12/05 04:30:16;;;;;;;4.40;2.73;;;4.80;99.90;;;;;;5054094;28;20199;-36
2021/12/05 04:32:42;;;;;;;3.50;2.40;;;4.80;99.90;;;;;;5053897;28;20210;-34
2021/12/05 04:35:08;;;;;;;2.40;2.20;;;4.70;99.90;;;;;;5053748;28;20632;-34
2021/12/05 04:37:34;;;;;;;3.10;2.70;;;4.70;99.90;;;;;;5054048;28;20516;-35
2021/12/05 04:40:00;;;;;;;4.53;2.70;;;4.70;99.90;;;;;;5053618;28;20170;-36
2021/12/05 04:42:26;;;;;;;2.83;2.40;;;4.70;99.90;;;;;;5053950;28;20171;-37
2021/12/05 04:44:51;;;;;;;3.33;2.30;;;4.70;99.90;;;;;;5053328;28;20197;-37
2021/12/05 04:47:17;;;;;;;3.57;2.40;;;4.60;99.90;;;;;;5053899;28;20260;-36
2021/12/05 04:49:44;;;;;;;3.47;2.30;;;4.60;99.90;;;;;;5053423;28;20551;-35
2021/12/05 04:52:12;;;;;;;2.37;2.10;;;4.60;99.90;;;;;;5053831;28;20175;-36
2021/12/05 04:54:38;;;;;;;5.00;2.50;;;4.50;99.90;;;;;;5053047;28;20768;-27
2021/12/05 04:57:04;;;;;;;2.93;2.00;;;4.50;99.90;;;;;;5053668;28;20168;-37
2021/12/05 04:59:34;;;;;;;3.70;2.03;;;4.50;99.90;;;;;;5053134;28;20660;-38
2021/12/05 05:02:00;;;;;;;2.73;2.10;;;4.50;99.90;;;;;;5053328;28;20179;-35
2021/12/05 05:04:29;;;;;;;3.73;2.30;;;4.50;99.90;;;;;;5053587;28;20575;-38
2021/12/05 05:06:59;;;;;;;3.37;1.90;;;4.50;99.90;;;;;;5053064;28;20210;-35
2021/12/05 05:09:25;;;;;;;3.87;1.97;;;4.40;99.90;;;;;;5053377;28;20203;-36
2021/12/05 05:11:51;;;;;;;2.43;2.00;;;4.40;99.90;;;;;;5052919;28;20685;-37
2021/12/05 05:14:16;;;;;;;4.47;2.23;;;4.40;99.90;;;;;;5053545;28;20257;-31
2021/12/05 05:16:43;;;;;;;3.60;2.07;;;4.40;99.90;;;;;;5034881;28;20187;-34
2021/12/05 05:19:11;;;;;;;3.00;1.90;;;4.40;99.90;;;;;;5053192;28;20167;-34
2021/12/05 05:43:23;;;;;;;2.13;1.90;;;4.40;99.90;;;;;;5052839;28;20178;-35
2021/12/05 05:50:38;;;;;;;3.27;2.00;;;4.40;99.90;;;;;;5052601;28;20198;-37
2021/12/05 05:53:04;;;;;;;2.60;2.40;;;4.40;99.90;;;;;;5052638;28;20662;-35
2021/12/05 05:55:30;;;;;;;3.47;2.03;;;4.30;99.90;;;;;;5051899;28;20207;-37
2021/12/05 06:00:36;;;;;;;2.77;1.87;;;4.40;99.90;;;;;;5052280;28;20206;-35
2021/12/05 06:06:07;;;;;;;2.83;2.30;;;4.50;99.90;;;;;;4970784;28;20324;-36
2021/12/05 06:08:35;;;;;;;3.20;1.93;;;4.50;99.90;;;;;;4971202;28;20224;-36
2021/12/05 06:11:06;;;;;;;3.93;2.10;;;4.50;99.90;;;;;;4970969;28;20664;-32
2021/12/05 06:13:34;;;;;;;2.73;1.87;;;4.60;99.90;;;;;;4971358;28;20765;-35
2021/12/05 06:15:59;;;;;;;4.03;2.37;;;4.60;99.90;;;;;;4970620;28;20185;-37
2021/12/05 06:18:26;;;;;;;2.03;1.87;;;4.60;99.90;;;;;;4970930;28;20687;-33
2021/12/05 06:20:52;;;;;;;3.00;1.90;;;4.60;99.90;;;;;;4970841;28;20200;-33
2021/12/05 06:23:18;;;;;;;3.10;1.90;;;4.70;99.90;;;;;;4971254;28;20293;-35
2021/12/05 06:25:48;;;;;;;2.23;2.00;;;4.70;99.90;;;;;;4970830;28;20186;-34
2021/12/05 06:28:15;;;;;;;2.07;1.90;;;4.70;99.90;;;;;;4970443;28;20185;-37
2021/12/05 06:41:37;;;;;;;1.90;1.80;;;4.70;99.90;;;;;;4996588;28;20241;-35
2021/12/05 06:46:48;;;;;;;3.40;2.13;;;4.70;99.90;;;;;;5051481;28;20186;-39
2021/12/05 06:49:14;;;;;;;3.63;1.80;;;4.80;99.90;;;;;;5051326;28;20178;-31
2021/12/05 06:51:39;;;;;;;2.37;1.70;;;4.80;99.90;;;;;;5051527;28;20685;-36
2021/12/05 06:54:05;;;;;;;2.97;1.97;;;4.70;99.90;;;;;;5051400;28;20214;-32
2021/12/05 06:56:30;;;;;;;3.20;1.77;;;4.80;99.90;;;;;;5051294;28;20163;-35
2021/12/05 06:58:56;;;;;;;3.27;2.07;;;4.80;99.90;;;;;;5051477;28;20179;-31
2021/12/05 07:01:23;;;;;;;2.97;1.87;;;4.80;99.90;;;;;;5051050;28;20198;-32
2021/12/05 07:03:50;;;;;;;3.33;2.10;;;4.80;99.90;;;;;;5051904;28;20523;-31
2021/12/05 07:08:45;;;;;;;2.20;1.80;;;4.80;99.90;;;;;;5051768;28;20228;-37
2021/12/05 07:11:26;;;;;;;1.70;1.60;;;4.80;99.90;;;;;;5057240;23;20230;-89
2021/12/05 07:16:29;;;;;;;2.80;1.83;;;5.30;99.90;;;;;;5032761;28;20257;-89
2021/12/05 07:19:14;;;;;;;3.03;1.77;;;4.90;99.90;;;;;;5014841;28;20219;-88
2021/12/05 07:22:02;;;;;;;1.97;1.87;;;5.70;99.90;;;;;;5013497;28;20274;-88
2021/12/05 07:43:03;;;;;;;3.23;1.90;;;5.10;99.90;;;;;;5012497;28;20180;-89
2021/12/05 07:45:37;;;;;;;4.27;2.77;;;5.10;99.90;;;;;;5010909;28;20180;-87
2021/12/05 07:48:12;;;;;;;3.87;3.00;;;5.20;99.90;;;;;;5010950;28;20231;-88
2021/12/05 07:50:54;;;;;;;4.00;2.70;;;5.20;99.90;;;;;;5011569;28;20168;-89
2021/12/05 07:53:33;;;;;;;3.43;2.73;;;5.70;99.90;;;;;;5011471;28;20730;-89
2021/12/05 07:56:07;;;;;;;2.80;2.23;;;5.20;99.90;;;;;;5013958;28;20202;-88
2021/12/05 07:58:57;;;;;;;3.57;2.03;;;5.90;99.90;;;;;;5018484;28;20229;-88
2021/12/05 08:14:23;;;;;;;2.80;2.00;;;5.20;99.90;;;;;;5035812;28;20203;-90
2021/12/05 08:15:18;;;;;;;3.33;2.00;;;4.70;99.90;;;;;;5035050;28;20361;-85
2021/12/05 08:17:51;;;;;;;8.47;2.60;;;4.50;99.90;;;;;;5030129;28;20259;-85
2021/12/05 08:20:23;;;;;;;4.93;2.20;;;4.40;99.90;;;;;;5030967;28;20184;-85
2021/12/05 08:22:50;;;;;;;5.50;2.37;;;4.20;99.90;;;;;;5034269;28;20258;-84
2021/12/05 08:25:15;;;;;;;2.60;2.13;;;4.00;99.90;;;;;;5017006;28;20176;-85
2021/12/05 08:27:50;;;;;;;3.83;2.43;;;3.90;99.90;;;;;;5017353;28;20182;-86
2021/12/05 08:30:25;;;;;;;3.03;2.37;;;3.80;99.90;;;;;;5032540;28;20680;-86
2021/12/05 09:08:46;;;;;;;7.90;2.93;;;8.70;99.90;;;;;;5033597;28;20175;-80
2021/12/05 09:25:03;;;;;;;2.53;1.90;;;15.50;99.90;;;;;;5033355;28;20285;-79
2021/12/05 10:08:38;;;;;;;3.73;2.10;;;18.20;99.90;;;;;;4988956;28;20659;-80
2021/12/05 10:11:18;;;;;;;3.97;1.77;;;18.20;99.90;;;;;;4971266;28;20544;-83
2021/12/05 10:14:13;;;;;;;3.30;2.10;;;18.30;99.90;;;;;;4987701;28;20193;-83
2021/12/05 10:37:19;;;;;;;3.10;2.00;;;18.70;99.90;;;;;;4974464;28;20250;-80
2021/12/05 10:39:46;;;;;;;4.70;1.53;;;18.80;99.90;;;;;;4976549;28;20196;-80
2021/12/05 10:42:38;;;;;;;1.80;1.53;;;18.80;99.90;;;;;;4964967;28;20627;-80
2021/12/05 10:45:10;;;;;;;2.10;1.40;;;18.90;99.90;;;;;;5008279;28;20654;-81
2021/12/05 10:47:41;;;;;;;3.30;1.67;;;18.80;99.90;;;;;;5040755;28;20184;-81
2021/12/05 10:50:27;;;;;;;2.83;1.83;;;18.90;99.90;;;;;;5031804;28;20653;-81
2021/12/05 10:53:25;;;;;;;4.10;1.50;;;18.90;99.90;;;;;;5032340;28;20175;-81
2021/12/05 10:55:57;;;;;;;5.03;1.67;;;18.90;99.90;;;;;;5031464;28;20199;-82
2021/12/05 10:58:29;;;;;;;2.83;1.77;;;19.00;99.90;;;;;;5033968;28;20503;-82
2021/12/05 11:01:13;;;;;;;3.13;2.10;;;19.00;99.90;;;;;;5033321;28;20168;-82
2021/12/05 11:03:39;;;;;;;2.53;2.07;;;19.00;99.90;;;;;;5014609;28;20580;-83
2021/12/05 11:06:47;;;;;;;2.50;2.10;;;19.00;99.90;;;;;;5031371;28;20293;-81
2021/12/05 11:09:25;;;;;;;3.17;2.20;;;19.00;99.90;;;;;;4932396;29;20254;-82
2021/12/05 11:12:18;;;;;;;2.57;2.00;;;19.10;99.90;;;;;;5006608;28;20557;-81
2021/12/05 11:14:48;;;;;;;2.67;1.80;;;19.10;99.90;;;;;;5019809;28;20199;-80
2021/12/05 11:17:21;;;;;;;5.23;2.30;;;19.10;99.90;;;;;;5040172;28;20257;-84
2021/12/05 11:19:48;;;;;;;3.60;2.17;;;19.10;99.90;;;;;;5031758;28;20549;-82
2021/12/05 11:22:21;;;;;;;2.47;2.00;;;19.10;99.90;;;;;;5031793;28;20267;-83
2021/12/05 11:24:58;;;;;;;3.03;2.00;;;19.20;99.90;;;;;;5013932;28;20198;-81
2021/12/05 11:27:28;;;;;;;2.87;2.20;;;19.20;99.90;;;;;;5032965;28;20179;-81
2021/12/05 11:30:00;;;;;;;4.40;2.40;;;19.20;99.90;;;;;;5022722;28;20173;-82
2021/12/05 11:32:37;;;;;;;4.07;2.20;;;19.20;99.90;;;;;;5035944;28;20171;-82
2021/12/05 11:35:14;;;;;;;3.57;2.27;;;19.20;99.90;;;;;;5034624;28;20286;-82
2021/12/05 11:38:01;;;;;;;2.83;1.97;;;19.20;99.90;;;;;;5036212;28;20181;-83
2021/12/05 11:40:47;;;;;;;3.63;2.37;;;19.20;99.90;;;;;;5035665;28;20187;-82
2021/12/05 11:43:26;;;;;;;4.10;2.40;;;19.20;99.90;;;;;;5036010;28;20302;-81
2021/12/05 11:45:55;;;;;;;3.37;2.30;;;19.20;99.90;;;;;;5039002;28;20186;-81
2021/12/05 11:48:51;;;;;;;2.67;2.27;;;19.30;99.90;;;;;;5033564;28;20186;-81
2021/12/05 11:51:28;;;;;;;6.10;2.57;;;19.30;99.90;;;;;;5016259;28;20199;-81
2021/12/05 11:54:05;;;;;;;3.40;2.43;;;19.30;99.90;;;;;;5035808;28;20586;-82
2021/12/05 11:56:30;;;;;;;2.87;2.13;;;19.30;99.90;;;;;;5033214;28;20171;-81
2021/12/05 11:59:14;;;;;;;5.03;2.07;;;19.30;99.90;;;;;;5025744;28;20176;-81
2021/12/05 12:02:05;;;;;;;4.83;2.23;;;19.30;99.90;;;;;;5020221;28;20226;-81
2021/12/05 12:05:08;;;;;;;3.20;2.33;;;19.30;99.90;;;;;;5034236;28;20172;-82
2021/12/05 12:07:37;;;;;;;3.57;2.13;;;19.30;99.90;;;;;;5025135;28;20183;-81
2021/12/05 12:10:16;;;;;;;3.90;2.00;;;19.40;99.90;;;;;;5034718;28;20180;-81
2021/12/05 12:12:49;;;;;;;4.23;1.80;;;19.30;99.90;;;;;;5035335;28;20188;-81
2021/12/05 12:15:16;;;;;;;3.83;2.13;;;19.40;99.90;;;;;;5024548;28;20682;-81
2021/12/05 12:17:44;;;;;;;4.37;1.90;;;19.50;99.90;;;;;;5034920;28;20199;-80
2021/12/05 12:20:12;;;;;;;3.77;2.20;;;19.50;99.90;;;;;;5034800;28;20168;-80
2021/12/05 12:22:39;;;;;;;3.57;2.10;;;19.50;99.90;;;;;;5023098;28;20180;-83
2021/12/05 12:25:13;;;;;;;3.07;2.13;;;19.50;99.90;;;;;;5027067;28;20230;-81
2021/12/05 12:27:42;;;;;;;4.07;2.00;;;19.60;99.90;;;;;;5038082;28;20646;-82
2021/12/05 12:30:12;;;;;;;2.50;2.00;;;19.60;99.90;;;;;;5023466;28;20180;-82
2021/12/05 12:32:44;;;;;;;2.83;1.90;;;19.60;99.90;;;;;;5027806;28;20179;-82
2021/12/05 12:35:17;;;;;;;3.17;1.90;;;19.70;99.90;;;;;;5026282;28;20227;-82
2021/12/05 12:37:54;;;;;;;1.77;1.50;;;19.70;99.90;;;;;;5001833;28;20656;-82
2021/12/05 12:40:59;;;;;;;3.07;1.93;;;19.70;99.90;;;;;;5012103;28;20255;-82
2021/12/05 12:43:41;;;;;;;3.23;2.03;;;19.70;99.90;;;;;;5002011;28;20654;-82
2021/12/05 12:46:22;;;;;;;3.57;2.00;;;19.80;99.90;;;;;;4997489;28;20212;-81
2021/12/05 12:48:55;;;;;;;3.00;2.07;;;19.80;99.90;;;;;;5013100;28;20532;-82
2021/12/05 12:51:35;;;;;;;2.73;1.97;;;19.80;99.90;;;;;;4997336;28;20538;-82
2021/12/05 12:54:09;;;;;;;2.70;1.77;;;19.80;99.90;;;;;;5012048;28;20216;-80
2021/12/05 12:56:36;;;;;;;2.07;1.87;;;19.80;99.90;;;;;;5017802;28;20184;-81
2021/12/05 12:59:10;;;;;;;2.53;1.70;;;19.90;99.90;;;;;;4996757;28;20515;-82
2021/12/05 13:12:53;;;;;;;1.60;1.50;;;20.00;99.90;;;;;;5014533;28;20189;-82
2021/12/05 13:15:27;;;;;;;2.20;1.80;;;20.00;99.90;;;;;;4994609;28;20564;-83
2021/12/05 13:17:57;;;;;;;2.57;1.67;;;20.10;99.90;;;;;;4977250;28;20235;-82
2021/12/05 13:20:43;;;;;;;2.97;1.60;;;20.10;99.90;;;;;;4976921;28;20185;-81
2021/12/05 13:23:31;;;;;;;1.70;1.57;;;20.10;99.90;;;;;;5009558;28;20671;-83
2021/12/05 13:26:05;;;;;;;2.30;1.80;;;20.10;99.90;;;;;;5013190;28;20183;-83
2021/12/05 13:28:44;;;;;;;1.50;1.40;;;20.10;99.90;;;;;;5014243;28;20567;-83
2021/12/05 13:31:28;;;;;;;3.83;1.73;;;20.10;99.90;;;;;;5012538;28;20172;-80
2021/12/05 13:34:24;;;;;;;4.00;2.03;;;20.20;99.90;;;;;;5028521;28;20173;-83
2021/12/05 13:36:55;;;;;;;3.67;1.40;;;20.20;99.90;;;;;;5013937;28;20173;-82
2021/12/05 13:39:32;;;;;;;2.97;1.60;;;20.20;99.90;;;;;;5000622;28;20263;-84
2021/12/05 13:42:09;;;;;;;3.43;2.03;;;20.30;99.90;;;;;;5014377;28;20241;-81
2021/12/05 13:44:56;;;;;;;2.73;1.87;;;20.20;99.90;;;;;;5013573;28;20278;-82
2021/12/05 13:47:29;;;;;;;3.23;1.80;;;20.20;99.90;;;;;;4996151;28;20180;-82
2021/12/05 13:50:39;;;;;;;1.97;1.57;;;20.30;99.90;;;;;;5013629;28;20627;-83
2021/12/05 13:53:03;;;;;;;3.00;1.80;;;20.30;99.90;;;;;;5012485;28;20611;-82
2021/12/05 13:55:56;;;;;;;5.67;2.07;;;20.30;99.90;;;;;;4995823;28;20243;-82
2021/12/05 13:58:30;;;;;;;3.73;2.10;;;20.30;99.90;;;;;;5013709;28;20172;-82
2021/12/05 14:00:57;;;;;;;3.63;1.67;;;20.30;99.90;;;;;;5012802;28;20181;-83
2021/12/05 14:03:54;;;;;;;3.30;2.10;;;20.40;99.90;;;;;;5013015;28;20252;-82
2021/12/05 14:06:36;;;;;;;3.43;1.97;;;20.40;99.90;;;;;;4997074;28;20168;-82
2021/12/05 14:09:07;;;;;;;4.43;1.90;;;20.40;99.90;;;;;;5010456;28;20169;-82
2021/12/05 14:11:35;;;;;;;4.33;1.57;;;20.40;99.90;;;;;;5012919;28;20193;-80
2021/12/05 14:14:08;;;;;;;4.40;1.80;;;20.40;99.90;;;;;;4995356;28;20177;-84
2021/12/05 14:16:39;;;;;;;3.80;1.80;;;20.40;99.90;;;;;;4995569;28;20271;-84
2021/12/05 14:19:09;;;;;;;1.77;1.30;;;20.40;99.90;;;;;;5012183;28;20169;-82
2021/12/05 14:21:43;;;;;;;6.10;1.97;;;20.40;99.90;;;;;;5012681;28;20176;-81
2021/12/05 14:24:11;;;;;;;3.37;1.90;;;20.50;99.90;;;;;;5012687;28;20180;-83
2021/12/05 14:26:39;;;;;;;4.37;1.67;;;20.40;99.90;;;;;;4995149;28;20180;-82
2021/12/05 14:29:12;;;;;;;3.70;1.87;;;20.50;99.90;;;;;;5012535;28;20184;-83
2021/12/05 14:31:49;;;;;;;8.27;2.40;;;20.50;99.90;;;;;;5012974;28;20172;-83
2021/12/05 14:34:16;;;;;;;5.33;2.27;;;20.50;99.90;;;;;;4998539;28;20212;-79
2021/12/05 14:37:06;;;;;;;6.17;2.40;;;20.50;99.90;;;;;;5012745;28;20519;-80
2021/12/05 14:39:36;;;;;;;5.33;2.60;;;20.50;99.90;;;;;;5012126;28;20204;-82
2021/12/05 14:42:16;;;;;;;6.30;2.77;;;20.50;99.90;;;;;;5012158;28;20231;-82
2021/12/05 14:44:43;;;;;;;3.50;2.40;;;20.50;99.90;;;;;;5012241;28;20177;-82
2021/12/05 14:47:12;;;;;;;3.57;2.60;;;20.50;99.90;;;;;;5006149;28;20185;-81
2021/12/05 14:49:46;;;;;;;4.30;2.50;;;20.50;99.90;;;;;;5011823;28;20263;-80
2021/12/05 14:52:17;;;;;;;7.03;2.60;;;20.50;99.90;;;;;;5012015;28;20227;-80
2021/12/05 14:54:44;;;;;;;5.37;2.90;;;20.50;99.90;;;;;;4993555;28;20212;-83
2021/12/05 14:57:34;;;;;;;3.23;2.47;;;20.60;99.90;;;;;;5007072;28;20546;-83
2021/12/05 15:00:15;;;;;;;8.60;3.00;;;20.60;99.90;;;;;;4995212;28;20251;-82
2021/12/05 15:02:43;;;;;;;7.67;3.07;;;20.50;99.90;;;;;;4991307;28;20189;-81
2021/12/05 15:05:16;;;;;;;4.88;2.50;;;20.60;99.90;;;;;;4998309;28;20547;-80
2021/12/05 15:07:44;;;;;;;9.13;2.88;;;20.60;99.90;;;;;;5011114;28;20272;-80
2021/12/05 15:10:17;;;;;;;4.67;2.70;;;20.60;99.90;;;;;;5011617;28;20263;-81
2021/12/05 15:12:43;;;;;;;5.15;3.17;;;20.60;99.90;;;;;;5007853;28;20198;-81
2021/12/05 15:15:11;;;;;;;5.05;2.95;;;20.60;99.90;;;;;;5010475;28;20212;-81
2021/12/05 15:17:40;;;;;;;5.70;3.23;;;20.60;99.90;;;;;;5010065;28;20243;-81
2021/12/05 15:20:12;;;;;;;8.60;3.43;;;20.60;99.90;;;;;;5009393;28;20512;-82
2021/12/05 15:22:40;;;;;;;7.40;3.17;;;20.60;99.90;;;;;;5008815;28;20176;-80
2021/12/05 15:25:13;;;;;;;7.55;3.38;;;20.60;99.90;;;;;;5011806;28;20243;-83
2021/12/05 15:27:39;;;;;;;5.80;3.27;;;20.60;99.90;;;;;;5011668;28;20268;-83
2021/12/05 15:30:33;;;;;;;7.00;3.53;;;20.60;99.90;;;;;;5010906;28;20215;-83
2021/12/05 15:33:05;;;;;;;4.47;3.07;;;20.60;99.90;;;;;;4912950;29;20279;-86
2021/12/05 15:35:31;;;;;;;6.53;3.33;;;20.60;99.90;;;;;;4913100;29;20212;-83
2021/12/05 15:38:04;;;;;;;8.27;3.45;;;20.50;99.90;;;;;;4913338;29;20608;-83
2021/12/05 15:40:32;;;;;;;7.88;3.72;;;20.60;99.90;;;;;;4912981;29;20186;-81
2021/12/05 15:43:03;;;;;;;7.53;3.40;;;20.60;99.90;;;;;;4913488;29;20537;-82
2021/12/05 15:45:29;;;;;;;5.73;3.40;;;20.60;99.90;;;;;;4936544;29;20286;-83
2021/12/05 15:47:55;;;;;;;9.47;3.50;;;20.60;99.90;;;;;;4927069;29;20523;-82
2021/12/05 15:50:27;;;;;;;6.30;3.13;;;20.60;99.90;;;;;;4931399;29;20188;-84
2021/12/05 15:52:59;;;;;;;5.87;3.40;;;20.60;99.90;;;;;;4930647;29;20187;-84
2021/12/05 15:55:25;;;;;;;5.20;3.27;;;20.60;99.90;;;;;;4920403;29;20577;-85
2021/12/05 15:58:08;;;;;;;5.33;3.23;;;20.60;99.90;;;;;;4950294;29;20183;-84
2021/12/05 16:00:51;;;;;;;6.07;3.37;;;20.60;99.90;;;;;;4941546;29;20206;-82
2021/12/05 16:03:20;;;;;;;5.00;3.13;;;20.60;99.90;;;;;;4962737;28;20193;-86
2021/12/05 16:05:54;;;;;;;8.83;3.33;;;20.60;99.90;;;;;;4994139;28;20208;-81
2021/12/05 16:08:19;;;;;;;6.03;3.30;;;20.60;99.90;;;;;;5011117;28;20169;-81
2021/12/05 16:10:48;;;;;;;4.60;2.80;;;20.60;99.90;;;;;;4994610;28;20185;-83
2021/12/05 16:13:22;;;;;;;5.38;3.22;;;20.60;99.90;;;;;;5012328;28;20227;-86
2021/12/05 16:15:53;;;;;;;6.33;3.10;;;20.60;99.90;;;;;;5014945;28;20578;-80
2021/12/05 16:18:29;;;;;;;5.17;2.80;;;20.60;99.90;;;;;;5014951;28;20328;-82
2021/12/05 16:21:01;;;;;;;11.73;3.53;;;20.60;99.90;;;;;;5003194;28;20237;-81
2021/12/05 16:23:32;;;;;;;6.00;3.00;;;20.70;99.90;;;;;;5000600;28;20184;-84
2021/12/05 16:26:02;;;;;;;5.93;3.10;;;20.70;99.90;;;;;;5020293;28;20258;-81
2021/12/05 16:28:34;;;;;;;5.07;3.20;;;20.60;99.90;;;;;;5018304;28;20185;-81
2021/12/05 16:31:08;;;;;;;6.63;3.30;;;20.60;99.90;;;;;;4997451;28;20176;-81
2021/12/05 16:33:34;;;;;;;6.63;3.00;;;20.60;99.90;;;;;;5015223;28;20172;-81
2021/12/05 16:36:01;;;;;;;6.83;3.03;;;20.60;99.90;;;;;;5014845;28;20539;-82
2021/12/05 16:38:43;;;;;;;6.37;3.17;;;20.60;99.90;;;;;;4996553;28;20184;-81
2021/12/05 16:41:35;;;;;;;5.37;2.70;;;20.60;99.90;;;;;;4996432;28;20235;-81
2021/12/05 16:44:08;;;;;;;4.57;2.80;;;20.50;99.90;;;;;;5014357;28;20542;-82
2021/12/05 16:46:57;;;;;;;5.37;2.80;;;20.50;99.90;;;;;;5014708;28;20168;-81
2021/12/05 16:49:26;;;;;;;5.47;3.07;;;20.60;99.90;;;;;;5014857;28;20172;-81
2021/12/05 16:52:00;;;;;;;4.97;2.73;;;20.60;99.90;;;;;;5014608;28;20266;-83
2021/12/05 16:54:44;;;;;;;7.43;3.50;;;20.50;99.90;;;;;;5014569;28;20205;-82
2021/12/05 16:57:16;;;;;;;6.57;2.90;;;20.50;99.90;;;;;;5014693;28;20169;-81
2021/12/05 16:59:49;;;;;;;4.07;2.60;;;20.50;99.90;;;;;;4996788;28;20260;-81
2021/12/05 17:02:21;;;;;;;5.57;2.73;;;20.50;99.90;;;;;;4996943;28;20551;-81
2021/12/05 17:04:56;;;;;;;5.57;3.00;;;20.50;99.90;;;;;;4996184;28;20180;-80
2021/12/05 17:07:44;;;;;;;4.33;2.90;;;20.50;99.90;;;;;;5014557;28;20172;-81
2021/12/05 17:10:25;;;;;;;5.83;2.77;;;20.50;99.90;;;;;;5012887;28;20173;-82
2021/12/05 17:12:53;;;;;;;6.63;2.90;;;20.50;99.90;;;;;;5013488;28;20528;-81
2021/12/05 17:15:22;;;;;;;4.77;2.90;;;20.60;99.90;;;;;;5012626;28;20303;-83
2021/12/05 17:17:50;;;;;;;5.13;2.97;;;20.50;99.90;;;;;;5014391;28;20164;-80
2021/12/05 17:20:30;;;;;;;4.50;2.47;;;20.60;99.90;;;;;;5013708;28;20230;-81
2021/12/05 17:23:03;;;;;;;5.17;2.57;;;20.50;99.90;;;;;;5014757;28;20200;-81
2021/12/05 17:25:37;;;;;;;3.70;2.80;;;20.60;99.90;;;;;;5013762;28;20173;-82
2021/12/05 17:28:10;;;;;;;4.07;3.10;;;20.60;99.90;;;;;;4995885;28;20180;-81
2021/12/05 17:30:36;;;;;;;5.93;3.00;;;20.60;99.90;;;;;;4993196;28;20185;-81
2021/12/05 17:33:02;;;;;;;4.63;3.17;;;20.60;99.90;;;;;;5007371;28;20180;-80
2021/12/05 17:35:30;;;;;;;6.30;2.77;;;20.50;99.90;;;;;;5013513;28;20208;-83
2021/12/05 17:37:58;;;;;;;4.23;2.57;;;20.60;99.90;;;;;;5022349;28;20172;-82
2021/12/05 17:40:32;;;;;;;4.43;2.70;;;20.50;99.90;;;;;;5033253;28;20333;-80
2021/12/05 17:42:58;;;;;;;6.33;2.70;;;20.60;99.90;;;;;;5022438;28;20254;-82
2021/12/05 17:45:25;;;;;;;5.17;2.53;;;20.60;99.90;;;;;;5013575;28;20181;-80
2021/12/05 17:47:51;;;;;;;3.87;2.90;;;20.60;99.90;;;;;;4995454;28;20231;-82
2021/12/05 17:50:20;;;;;;;3.72;2.42;;;20.60;99.90;;;;;;5013444;28;20647;-83
2021/12/05 17:52:48;;;;;;;4.57;2.70;;;20.60;99.80;;;;;;5013365;28;20180;-85
2021/12/05 17:55:29;;;;;;;3.50;2.60;;;20.60;99.90;;;;;;5013372;28;20212;-82
2021/12/05 17:58:01;;;;;;;3.22;2.28;;;20.60;99.90;;;;;;5013180;28;20263;-82
2021/12/05 18:02:58;;;;;;;3.78;2.70;;;20.60;99.80;;;;;;5013169;28;20173;-84
2021/12/05 18:05:35;;;;;;;5.30;3.00;;;20.60;99.80;;;;;;5012996;28;20640;-84
2021/12/05 18:08:05;;;;;;;4.30;2.43;;;20.60;99.90;;;;;;5013330;28;20183;-82
2021/12/05 18:10:35;;;;;;;2.83;2.50;;;20.60;99.90;;;;;;4995624;28;20208;-83
2021/12/05 18:13:02;;;;;;;5.10;2.97;;;20.60;99.80;;;;;;5013687;28;20184;-84
2021/12/05 18:15:34;;;;;;;3.30;2.70;;;20.60;99.90;;;;;;5012795;28;20295;-80
2021/12/05 18:18:00;;;;;;;2.83;2.40;;;20.60;99.80;;;;;;4995382;28;20638;-81
2021/12/05 18:20:29;;;;;;;4.23;2.83;;;20.60;99.80;;;;;;5012842;28;20181;-82
2021/12/05 18:22:58;;;;;;;3.87;2.73;;;21.00;99.90;;;;;;4995397;28;20173;-82
2021/12/05 18:25:24;;;;;;;5.20;2.80;;;20.60;99.70;;;;;;5012154;28;20642;-85
2021/12/05 18:27:52;;;;;;;3.10;2.80;;;20.60;99.80;;;;;;5012781;28;20181;-86
2021/12/05 18:30:24;;;;;;;5.93;2.80;;;20.60;99.70;;;;;;5012754;28;20191;-85
2021/12/05 18:32:53;;;;;;;3.50;3.00;;;20.60;99.70;;;;;;4995298;28;20176;-84
2021/12/05 18:35:21;;;;;;;2.93;2.60;;;20.50;99.70;;;;;;5012631;28;20244;-84
2021/12/05 18:37:48;;;;;;;4.53;2.57;;;20.50;99.60;;;;;;5011882;28;20238;-82
2021/12/05 18:40:15;;;;;;;3.57;2.83;;;20.60;99.70;;;;;;5012020;28;20676;-82
2021/12/05 18:42:42;;;;;;;4.77;2.83;;;20.50;99.60;;;;;;5012335;28;20207;-81
2021/12/05 18:45:11;;;;;;;3.83;3.03;;;20.50;99.60;;;;;;5012400;28;20175;-83
2021/12/05 18:47:40;;;;;;;6.60;3.00;;;20.50;99.60;;;;;;4994779;28;20216;-82
2021/12/05 18:50:08;;;;;;;3.97;2.30;;;20.60;99.60;;;;;;5012733;28;20227;-81
2021/12/05 18:52:36;;;;;;;2.93;2.60;;;20.50;99.60;;;;;;5012724;28;20231;-82